createdAt,value
2018-02-11T00:01:14.362Z,3.06
2018-02-11T00:02:29.384Z,3.15
2018-02-11T00:03:44.825Z,3.08
2018-02-11T00:05:00.080Z,3.06
2018-02-11T00:06:15.234Z,3.19
2018-02-11T00:07:30.258Z,3.15
2018-02-11T00:08:44.999Z,3.16
2018-02-11T00:09:59.882Z,3.08
2018-02-11T00:11:14.855Z,3.16
2018-02-11T00:12:29.726Z,3.16
2018-02-11T00:13:45.152Z,3.21
2018-02-11T00:15:00.042Z,3.24
2018-02-11T00:16:15.657Z,3.12
2018-02-11T00:17:30.770Z,3.13
2018-02-11T00:18:45.359Z,3.12
2018-02-11T00:19:59.968Z,3.13
2018-02-11T00:21:14.651Z,3
2018-02-11T00:22:30.037Z,2.97
2018-02-11T00:23:45.283Z,2.98
2018-02-11T00:25:00.093Z,2.98
2018-02-11T00:26:14.885Z,3.06
2018-02-11T00:27:30.333Z,3.05
2018-02-11T00:28:45.877Z,3.12
2018-02-11T00:30:01.181Z,3.13
2018-02-11T00:31:16.539Z,3.13
2018-02-11T00:32:31.510Z,3.15
2018-02-11T00:33:46.566Z,3.26
2018-02-11T00:35:02.083Z,3.26
2018-02-11T00:36:17.611Z,3.24
2018-02-11T00:37:32.156Z,3.24
2018-02-11T00:38:47.073Z,3.27
2018-02-11T00:40:01.682Z,3.29
2018-02-11T00:41:16.873Z,3.26
2018-02-11T00:42:31.940Z,3.26
2018-02-11T00:43:46.893Z,3.31
2018-02-11T00:45:01.600Z,3.3
2018-02-11T00:46:15.934Z,3.33
2018-02-11T00:47:31.331Z,3.33
2018-02-11T00:48:45.969Z,3.36
2018-02-11T00:50:00.838Z,3.48
2018-02-11T00:51:15.482Z,3.41
2018-02-11T00:52:30.547Z,3.31
2018-02-11T00:53:46.137Z,3.37
2018-02-11T00:55:00.573Z,3.36
2018-02-11T00:56:15.815Z,3.37
2018-02-11T00:57:30.490Z,3.41
2018-02-11T00:58:45.672Z,3.45
2018-02-11T01:00:01.192Z,3.36
2018-02-11T01:01:16.339Z,3.41
2018-02-11T01:02:30.793Z,3.4
2018-02-11T01:03:45.104Z,3.45
2018-02-11T01:04:59.723Z,3.41
2018-02-11T01:06:14.667Z,3.52
2018-02-11T01:07:29.360Z,3.41
2018-02-11T01:08:44.502Z,3.45
2018-02-11T01:09:59.092Z,3.37
2018-02-11T01:11:13.718Z,3.37
2018-02-11T01:12:28.257Z,3.43
2018-02-11T01:13:42.825Z,3.36
2018-02-11T01:14:57.429Z,3.3
2018-02-11T01:16:11.783Z,3.3
2018-02-11T01:17:26.378Z,3.24
2018-02-11T01:19:06.669Z,3.24
2018-02-11T01:20:21.557Z,3.24
2018-02-11T01:21:36.445Z,3.21
2018-02-11T01:22:51.287Z,3.27
2018-02-11T01:24:06.016Z,3.26
2018-02-11T01:25:20.892Z,3.26
2018-02-11T01:26:34.967Z,3.34
2018-02-11T01:27:49.558Z,3.12
2018-02-11T01:29:04.117Z,3.05
2018-02-11T01:30:18.802Z,2.98
2018-02-11T01:31:33.938Z,3
2018-02-11T01:32:48.894Z,3.05
2018-02-11T01:34:03.527Z,3
2018-02-11T01:35:18.127Z,3.01
2018-02-11T01:36:33.068Z,2.97
2018-02-11T01:37:47.766Z,2.97
2018-02-11T01:39:02.347Z,2.94
2018-02-11T01:40:16.371Z,2.93
2018-02-11T01:41:30.324Z,2.97
2018-02-11T01:42:45.288Z,2.94
2018-02-11T01:43:59.926Z,2.93
2018-02-11T01:45:14.973Z,2.94
2018-02-11T01:46:29.535Z,2.95
2018-02-11T01:47:44.242Z,2.95
2018-02-11T01:48:59.290Z,2.93
2018-02-11T01:50:14.168Z,2.97
2018-02-11T01:51:28.201Z,2.95
2018-02-11T01:52:43.082Z,3
2018-02-11T01:53:58.753Z,2.93
2018-02-11T01:55:14.120Z,3.01
2018-02-11T01:56:28.432Z,2.93
2018-02-11T01:57:43.041Z,2.98
2018-02-11T01:58:57.641Z,3
2018-02-11T02:00:12.610Z,3.01
2018-02-11T02:01:27.283Z,2.97
2018-02-11T02:02:41.397Z,3
2018-02-11T02:03:55.805Z,3.01
2018-02-11T02:05:10.706Z,3.01
2018-02-11T02:06:25.323Z,2.98
2018-02-11T02:07:40.534Z,3.03
2018-02-11T02:08:55.442Z,3.09
2018-02-11T02:10:10.658Z,3
2018-02-11T02:11:25.521Z,3.15
2018-02-11T02:12:39.587Z,3.05
2018-02-11T02:13:56.051Z,3.01
2018-02-11T02:15:10.963Z,3.08
2018-02-11T02:16:25.595Z,3.01
2018-02-11T02:17:40.177Z,3.01
2018-02-11T02:18:54.995Z,3.12
2018-02-11T02:20:10.399Z,3.12
2018-02-11T02:21:25.284Z,3.06
2018-02-11T02:22:39.106Z,3.15
2018-02-11T02:23:53.741Z,3.05
2018-02-11T02:25:08.924Z,2.98
2018-02-11T02:26:23.240Z,3
2018-02-11T02:27:37.519Z,3.13
2018-02-11T02:28:52.551Z,3.13
2018-02-11T02:30:07.198Z,3.11
2018-02-11T02:31:21.821Z,3.12
2018-02-11T02:32:37.043Z,3.12
2018-02-11T02:33:52.471Z,3.06
2018-02-11T02:35:06.834Z,3.16
2018-02-11T02:36:21.706Z,3.12
2018-02-11T02:37:36.300Z,3.13
2018-02-11T02:38:51.420Z,3.13
2018-02-11T02:40:06.690Z,3.16
2018-02-11T02:41:21.601Z,3.21
2018-02-11T02:43:08.178Z,3.12
2018-02-11T02:44:23.022Z,3.12
2018-02-11T02:45:37.577Z,3.13
2018-02-11T02:46:53.033Z,3.16
2018-02-11T02:48:07.591Z,3.21
2018-02-11T02:49:22.329Z,3.15
2018-02-11T02:50:37.468Z,3.19
2018-02-11T02:51:52.594Z,3.12
2018-02-11T02:53:07.229Z,3.24
2018-02-11T02:54:22.404Z,3.08
2018-02-11T02:55:37.003Z,3.12
2018-02-11T02:56:51.896Z,3.15
2018-02-11T02:58:06.533Z,3.12
2018-02-11T02:59:21.113Z,3.26
2018-02-11T03:00:35.700Z,3.16
2018-02-11T03:01:50.884Z,3.11
2018-02-11T03:03:06.024Z,3.21
2018-02-11T03:04:21.594Z,3.26
2018-02-11T03:05:36.223Z,3.26
2018-02-11T03:06:51.372Z,3.33
2018-02-11T03:08:06.036Z,3.31
2018-02-11T03:09:21.604Z,3.24
2018-02-11T03:10:37.024Z,3.27
2018-02-11T03:11:51.333Z,3.26
2018-02-11T03:13:06.503Z,3.21
2018-02-11T03:14:21.104Z,3.16
2018-02-11T03:15:36.577Z,3.16
2018-02-11T03:16:51.192Z,3.12
2018-02-11T03:18:06.280Z,3.13
2018-02-11T03:19:21.627Z,3.16
2018-02-11T03:20:36.591Z,3.12
2018-02-11T03:21:51.436Z,3.13
2018-02-11T03:23:06.858Z,3.18
2018-02-11T03:24:21.707Z,3.19
2018-02-11T03:25:36.705Z,3.36
2018-02-11T03:26:51.866Z,3.31
2018-02-11T03:28:06.772Z,3.26
2018-02-11T03:29:21.664Z,3.21
2018-02-11T03:30:36.459Z,3.24
2018-02-11T03:31:51.045Z,3.26
2018-02-11T03:33:05.896Z,3.26
2018-02-11T03:34:20.778Z,3.27
2018-02-11T03:35:35.605Z,3.29
2018-02-11T03:36:49.936Z,3.27
2018-02-11T03:38:04.804Z,3.33
2018-02-11T03:39:19.789Z,3.3
2018-02-11T03:40:34.715Z,3.27
2018-02-11T03:41:49.050Z,3.31
2018-02-11T03:43:03.873Z,3.29
2018-02-11T03:44:18.759Z,3.29
2018-02-11T03:45:33.784Z,3.24
2018-02-11T03:46:48.916Z,3.34
2018-02-11T03:48:03.822Z,3.26
2018-02-11T03:49:18.389Z,3.26
2018-02-11T03:50:33.453Z,3.33
2018-02-11T03:51:48.493Z,3.29
2018-02-11T03:53:02.864Z,3.26
2018-02-11T03:54:16.604Z,3.3
2018-02-11T03:55:31.417Z,3.27
2018-02-11T03:56:45.948Z,3.22
2018-02-11T03:58:00.827Z,3.33
2018-02-11T03:59:15.408Z,3.36
2018-02-11T04:00:29.964Z,3.21
2018-02-11T04:01:44.325Z,3.24
2018-02-11T04:02:59.728Z,3.21
2018-02-11T04:04:15.150Z,3.24
2018-02-11T04:05:29.705Z,3.24
2018-02-11T04:06:44.345Z,3.21
2018-02-11T04:07:58.944Z,3.27
2018-02-11T04:09:13.802Z,3.19
2018-02-11T04:10:28.666Z,3.26
2018-02-11T04:11:44.336Z,3.27
2018-02-11T04:12:58.924Z,3.21
2018-02-11T04:14:14.031Z,3.34
2018-02-11T04:15:28.402Z,3.22
2018-02-11T04:16:43.440Z,3.29
2018-02-11T04:17:58.630Z,3.3
2018-02-11T04:19:13.531Z,3.4
2018-02-11T04:20:28.724Z,3.36
2018-02-11T04:21:43.374Z,3.37
2018-02-11T04:22:57.950Z,3.36
2018-02-11T04:24:13.776Z,3.37
2018-02-11T04:25:28.697Z,3.37
2018-02-11T04:26:43.949Z,3.45
2018-02-11T04:27:58.901Z,3.43
2018-02-11T04:29:13.476Z,3.49
2018-02-11T04:30:28.073Z,3.36
2018-02-11T04:31:43.513Z,3.24
2018-02-11T04:32:58.663Z,3.24
2018-02-11T04:34:13.247Z,3.29
2018-02-11T04:35:27.629Z,3.29
2018-02-11T04:36:42.485Z,3.29
2018-02-11T04:37:57.055Z,3.34
2018-02-11T04:39:11.913Z,3.29
2018-02-11T04:40:27.083Z,3.34
2018-02-11T04:41:41.911Z,3.29
2018-02-11T04:42:57.117Z,3.37
2018-02-11T04:44:11.982Z,3.27
2018-02-11T04:45:26.591Z,3.3
2018-02-11T04:46:41.263Z,3.41
2018-02-11T04:47:56.398Z,3.33
2018-02-11T04:49:11.262Z,3.4
2018-02-11T04:50:25.877Z,3.4
2018-02-11T04:51:40.808Z,3.36
2018-02-11T04:52:55.096Z,3.36
2018-02-11T04:54:09.705Z,3.36
2018-02-11T04:55:24.308Z,3.41
2018-02-11T04:56:40.211Z,3.34
2018-02-11T04:57:55.080Z,3.45
2018-02-11T04:59:09.424Z,3.49
2018-02-11T05:00:24.255Z,3.43
2018-02-11T05:01:39.418Z,3.43
2018-02-11T05:02:54.158Z,3.4
2018-02-11T05:04:08.214Z,3.43
2018-02-11T05:05:23.412Z,3.33
2018-02-11T05:06:38.016Z,3.33
2018-02-11T05:07:53.528Z,3.43
2018-02-11T05:09:08.935Z,3.29
2018-02-11T05:10:23.240Z,3.34
2018-02-11T05:11:38.403Z,3.26
2018-02-11T05:12:53.536Z,3.21
2018-02-11T05:14:08.437Z,3.27
2018-02-11T05:15:23.012Z,3.37
2018-02-11T05:16:37.414Z,3.26
2018-02-11T05:19:09.242Z,3.26
2018-02-11T05:20:24.152Z,3.31
2018-02-11T05:21:39.338Z,3.29
2018-02-11T05:22:54.039Z,3.33
2018-02-11T05:24:08.661Z,3.31
2018-02-11T05:25:23.039Z,3.36
2018-02-11T05:26:38.482Z,3.29
2018-02-11T05:27:52.323Z,3.29
2018-02-11T05:29:27.975Z,3.36
2018-02-11T05:30:42.562Z,3.26
2018-02-11T05:31:57.819Z,3.29
2018-02-11T05:33:12.535Z,3.26
2018-02-11T05:34:26.837Z,3.27
2018-02-11T05:35:41.450Z,3.29
2018-02-11T05:36:56.597Z,3.27
2018-02-11T05:38:11.856Z,3.18
2018-02-11T05:39:26.684Z,3.16
2018-02-11T05:40:41.024Z,3.18
2018-02-11T05:41:55.642Z,3.19
2018-02-11T05:43:10.410Z,3.21
2018-02-11T05:44:25.051Z,3.05
2018-02-11T05:45:39.915Z,2.95
2018-02-11T05:46:53.990Z,3
2018-02-11T05:48:09.309Z,3.01
2018-02-11T05:49:24.470Z,2.95
2018-02-11T05:50:39.601Z,2.91
2018-02-11T05:51:54.203Z,2.98
2018-02-11T05:53:09.321Z,2.9
2018-02-11T05:54:24.455Z,2.77
2018-02-11T05:55:39.585Z,2.61
2018-02-11T05:56:54.430Z,2.62
2018-02-11T05:58:09.231Z,2.59
2018-02-11T05:59:23.818Z,2.57
2018-02-11T06:00:38.702Z,2.52
2018-02-11T06:01:54.281Z,2.4
2018-02-11T06:03:09.513Z,2.44
2018-02-11T06:04:24.071Z,2.37
2018-02-11T06:05:38.950Z,2.37
2018-02-11T06:06:54.104Z,2.39
2018-02-11T06:08:09.295Z,2.4
2018-02-11T06:09:24.691Z,2.39
2018-02-11T06:10:39.043Z,2.39
2018-02-11T06:11:54.436Z,2.26
2018-02-11T06:13:08.473Z,2.3
2018-02-11T06:14:23.098Z,2.22
2018-02-11T06:15:38.328Z,2.19
2018-02-11T06:16:53.225Z,2.22
2018-02-11T06:18:07.995Z,2.12
2018-02-11T06:19:22.355Z,2.07
2018-02-11T06:20:36.922Z,2.21
2018-02-11T06:21:52.117Z,2.22
2018-02-11T06:23:06.963Z,2.19
2018-02-11T06:24:21.890Z,2.18
2018-02-11T06:25:36.986Z,2.19
2018-02-11T06:26:52.379Z,2.18
2018-02-11T06:28:07.535Z,2.33
2018-02-11T06:29:23.100Z,2.25
2018-02-11T06:30:38.237Z,2.19
2018-02-11T06:31:52.912Z,2.16
2018-02-11T06:33:07.865Z,2.16
2018-02-11T06:34:22.628Z,2.23
2018-02-11T06:35:37.492Z,2.19
2018-02-11T06:36:52.610Z,2.22
2018-02-11T06:38:07.488Z,2.23
2018-02-11T06:39:22.345Z,2.19
2018-02-11T06:40:37.784Z,2.25
2018-02-11T06:41:52.983Z,2.28
2018-02-11T06:43:07.706Z,2.3
2018-02-11T06:44:22.376Z,2.25
2018-02-11T06:45:37.310Z,2.28
2018-02-11T06:46:52.161Z,2.21
2018-02-11T06:48:06.766Z,2.28
2018-02-11T06:49:21.370Z,2.18
2018-02-11T06:50:35.952Z,2.15
2018-02-11T06:51:51.749Z,2.22
2018-02-11T06:53:07.096Z,2.12
2018-02-11T06:54:22.462Z,2.14
2018-02-11T06:55:37.672Z,2.19
2018-02-11T06:56:52.803Z,2.12
2018-02-11T06:58:07.784Z,2.15
2018-02-11T06:59:22.989Z,2.07
2018-02-11T07:00:37.628Z,2.19
2018-02-11T07:01:52.565Z,2.15
2018-02-11T07:03:07.474Z,2.16
2018-02-11T07:04:22.088Z,2.19
2018-02-11T07:05:36.961Z,2.12
2018-02-11T07:06:51.466Z,2.12
2018-02-11T07:08:06.278Z,2.19
2018-02-11T07:09:21.575Z,2.25
2018-02-11T07:10:36.715Z,2.19
2018-02-11T07:11:52.145Z,2.22
2018-02-11T07:13:07.035Z,2.18
2018-02-11T07:14:21.375Z,2.22
2018-02-11T07:15:35.981Z,2.21
2018-02-11T07:16:50.579Z,2.19
2018-02-11T07:18:05.762Z,2.18
2018-02-11T07:19:20.784Z,2.21
2018-02-11T07:20:35.690Z,2.21
2018-02-11T07:21:49.742Z,2.28
2018-02-11T07:23:04.412Z,2.18
2018-02-11T07:24:19.794Z,2.21
2018-02-11T07:25:34.141Z,2.19
2018-02-11T07:26:48.522Z,2.12
2018-02-11T07:28:03.879Z,2.14
2018-02-11T07:29:18.780Z,2.14
2018-02-11T07:30:33.587Z,2.1
2018-02-11T07:31:48.532Z,2.1
2018-02-11T07:33:03.995Z,2.21
2018-02-11T07:34:18.888Z,2.12
2018-02-11T07:35:33.684Z,2.1
2018-02-11T07:36:48.595Z,2.14
2018-02-11T07:38:03.844Z,2.03
2018-02-11T07:39:18.262Z,2.15
2018-02-11T07:40:33.423Z,2.14
2018-02-11T07:41:48.605Z,2.07
2018-02-11T07:43:03.335Z,2.05
2018-02-11T07:44:18.024Z,2.14
2018-02-11T07:45:32.926Z,2.1
2018-02-11T07:46:47.587Z,2.07
2018-02-11T07:48:03.116Z,2.1
2018-02-11T07:49:18.860Z,2.01
2018-02-11T07:50:34.454Z,2.1
2018-02-11T07:51:48.807Z,2.19
2018-02-11T07:53:03.426Z,2.21
2018-02-11T07:54:17.817Z,2.21
2018-02-11T07:55:33.535Z,2.14
2018-02-11T07:56:47.899Z,2.19
2018-02-11T07:58:02.314Z,2.22
2018-02-11T07:59:16.655Z,2.21
2018-02-11T08:00:31.434Z,2.21
2018-02-11T08:01:46.074Z,2.25
2018-02-11T08:03:00.961Z,2.18
2018-02-11T08:04:15.024Z,2.16
2018-02-11T08:05:30.085Z,2.32
2018-02-11T08:06:45.210Z,2.21
2018-02-11T08:08:00.400Z,2.18
2018-02-11T08:09:15.038Z,2.25
2018-02-11T08:10:29.783Z,2.3
2018-02-11T08:11:45.099Z,2.39
2018-02-11T08:12:59.719Z,2.43
2018-02-11T08:14:14.424Z,2.3
2018-02-11T08:15:29.458Z,2.3
2018-02-11T08:16:44.058Z,2.33
2018-02-11T08:17:59.261Z,2.3
2018-02-11T08:19:13.663Z,2.32
2018-02-11T08:20:29.200Z,2.28
2018-02-11T08:21:46.843Z,2.25
2018-02-11T08:24:04.657Z,2.23
2018-02-11T08:25:19.927Z,2.3
2018-02-11T08:26:35.137Z,2.34
2018-02-11T08:27:50.351Z,2.32
2018-02-11T08:29:05.584Z,2.3
2018-02-11T08:30:21.083Z,2.32
2018-02-11T08:31:36.243Z,2.33
2018-02-11T08:32:50.605Z,2.39
2018-02-11T08:34:05.871Z,2.44
2018-02-11T08:35:20.796Z,2.4
2018-02-11T08:36:34.646Z,2.34
2018-02-11T08:37:49.552Z,2.57
2018-02-11T08:39:04.748Z,2.44
2018-02-11T08:40:19.137Z,2.54
2018-02-11T08:41:33.548Z,2.47
2018-02-11T08:42:48.738Z,2.57
2018-02-11T08:44:03.906Z,2.51
2018-02-11T08:45:19.464Z,2.5
2018-02-11T08:46:34.855Z,2.54
2018-02-11T08:47:49.218Z,2.57
2018-02-11T08:49:04.141Z,2.57
2018-02-11T08:50:19.039Z,2.64
2018-02-11T08:51:34.299Z,2.75
2018-02-11T08:52:49.170Z,2.68
2018-02-11T08:54:03.848Z,2.73
2018-02-11T08:55:18.187Z,2.68
2018-02-11T08:56:33.304Z,2.73
2018-02-11T08:57:48.588Z,2.62
2018-02-11T08:59:02.968Z,2.72
2018-02-11T09:00:17.624Z,2.7
2018-02-11T09:01:32.796Z,2.69
2018-02-11T09:02:47.719Z,2.75
2018-02-11T09:04:03.220Z,2.68
2018-02-11T09:05:18.627Z,2.69
2018-02-11T09:06:33.586Z,2.69
2018-02-11T09:07:47.982Z,2.77
2018-02-11T09:09:03.210Z,2.79
2018-02-11T09:10:18.847Z,2.93
2018-02-11T09:11:33.522Z,2.87
2018-02-11T09:12:48.880Z,2.83
2018-02-11T09:14:04.278Z,2.72
2018-02-11T09:15:19.676Z,2.76
2018-02-11T09:16:34.322Z,2.83
2018-02-11T09:17:49.998Z,2.76
2018-02-11T09:19:04.931Z,2.91
2018-02-11T09:20:19.621Z,2.8
2018-02-11T09:21:34.590Z,2.73
2018-02-11T09:22:49.820Z,2.72
2018-02-11T09:24:04.474Z,2.93
2018-02-11T09:25:19.173Z,2.88
2018-02-11T09:26:34.188Z,2.98
2018-02-11T09:27:49.241Z,3.03
2018-02-11T09:29:04.542Z,3.01
2018-02-11T09:30:18.979Z,3.01
2018-02-11T09:31:33.679Z,3
2018-02-11T09:32:49.274Z,3
2018-02-11T09:34:03.971Z,2.94
2018-02-11T09:35:18.186Z,3.06
2018-02-11T09:36:32.582Z,2.95
2018-02-11T09:37:47.953Z,2.94
2018-02-11T09:39:02.956Z,3
2018-02-11T09:40:18.479Z,2.95
2018-02-11T09:41:33.765Z,2.91
2018-02-11T09:42:48.549Z,3.05
2018-02-11T09:44:03.349Z,3.12
2018-02-11T09:45:18.084Z,3.26
2018-02-11T09:46:32.477Z,3.36
2018-02-11T09:47:46.951Z,3.45
2018-02-11T09:49:02.793Z,3.33
2018-02-11T09:50:17.452Z,3.21
2018-02-11T09:51:31.538Z,3.19
2018-02-11T09:52:46.362Z,3.15
2018-02-11T09:54:01.625Z,3.22
2018-02-11T09:55:16.341Z,3.3
2018-02-11T09:56:31.283Z,3.24
2018-02-11T09:57:46.041Z,3.24
2018-02-11T09:59:00.194Z,3.26
2018-02-11T10:00:15.505Z,3.34
2018-02-11T10:01:30.544Z,3.48
2018-02-11T10:02:45.082Z,3.34
2018-02-11T10:04:00.081Z,3.22
2018-02-11T10:05:14.616Z,3.21
2018-02-11T10:06:30.067Z,3.36
2018-02-11T10:07:45.163Z,3.29
2018-02-11T10:09:00.450Z,3.4
2018-02-11T10:10:16.051Z,3.4
2018-02-11T10:11:31.083Z,3.58
2018-02-11T10:12:45.992Z,3.59
2018-02-11T10:14:01.124Z,3.81
2018-02-11T10:15:15.361Z,3.86
2018-02-11T10:16:30.229Z,3.77
2018-02-11T10:17:44.756Z,3.84
2018-02-11T10:18:59.088Z,3.74
2018-02-11T10:20:13.848Z,3.68
2018-02-11T10:21:29.034Z,3.7
2018-02-11T10:22:43.769Z,3.67
2018-02-11T10:23:58.632Z,3.7
2018-02-11T10:25:13.928Z,3.73
2018-02-11T10:26:28.996Z,3.63
2018-02-11T10:27:43.698Z,3.7
2018-02-11T10:28:58.202Z,3.78
2018-02-11T10:30:13.533Z,3.81
2018-02-11T10:31:29.501Z,3.74
2018-02-11T10:32:45.098Z,3.61
2018-02-11T10:34:00.593Z,3.56
2018-02-11T10:35:15.294Z,3.53
2018-02-11T10:36:30.109Z,3.59
2018-02-11T10:37:45.721Z,3.59
2018-02-11T10:39:01.230Z,3.73
2018-02-11T10:40:16.239Z,3.76
2018-02-11T10:41:30.670Z,3.77
2018-02-11T10:42:45.298Z,3.82
2018-02-11T10:44:00.816Z,3.99
2018-02-11T10:45:15.362Z,3.94
2018-02-11T10:46:30.363Z,3.95
2018-02-11T10:47:45.124Z,4.02
2018-02-11T10:49:00.338Z,4.02
2018-02-11T10:50:15.474Z,4.03
2018-02-11T10:51:29.621Z,4.02
2018-02-11T10:52:44.610Z,4.13
2018-02-11T10:53:59.580Z,4.27
2018-02-11T10:55:14.533Z,4.32
2018-02-11T10:56:30.402Z,4.48
2018-02-11T10:57:45.641Z,4.25
2018-02-11T10:59:00.343Z,4.27
2018-02-11T11:00:15.335Z,4.28
2018-02-11T11:01:30.622Z,4.32
2018-02-11T11:02:45.919Z,4.3
2018-02-11T11:04:00.340Z,4.32
2018-02-11T11:05:15.047Z,4.34
2018-02-11T11:06:30.286Z,4.27
2018-02-11T11:07:45.078Z,4.22
2018-02-11T11:09:01.014Z,4.28
2018-02-11T11:10:15.404Z,4.31
2018-02-11T11:11:30.890Z,4.12
2018-02-11T11:12:45.604Z,4.27
2018-02-11T11:14:00.923Z,4.36
2018-02-11T11:15:15.382Z,4.36
2018-02-11T11:16:29.519Z,4.27
2018-02-11T11:17:44.201Z,4.49
2018-02-11T11:18:58.697Z,4.5
2018-02-11T11:20:13.714Z,4.42
2018-02-11T11:21:28.714Z,4.49
2018-02-11T11:22:43.901Z,4.52
2018-02-11T11:23:59.160Z,4.53
2018-02-11T11:25:13.832Z,4.6
2018-02-11T11:26:28.502Z,4.53
2018-02-11T11:27:43.557Z,4.49
2018-02-11T11:28:58.994Z,4.32
2018-02-11T11:30:13.686Z,4.45
2018-02-11T11:31:28.615Z,4.45
2018-02-11T11:32:43.380Z,4.5
2018-02-11T11:33:58.882Z,4.53
2018-02-11T11:35:13.836Z,4.48
2018-02-11T11:36:28.066Z,4.56
2018-02-11T11:37:43.135Z,4.63
2018-02-11T11:38:57.788Z,4.66
2018-02-11T11:40:13.065Z,4.6
2018-02-11T11:41:27.741Z,4.6
2018-02-11T11:42:42.818Z,4.63
2018-02-11T11:43:57.873Z,4.66
2018-02-11T11:45:13.376Z,4.63
2018-02-11T11:46:27.624Z,4.67
2018-02-11T11:47:42.485Z,4.63
2018-02-11T11:48:57.793Z,4.63
2018-02-11T11:50:12.500Z,4.63
2018-02-11T11:51:27.156Z,4.58
2018-02-11T11:52:42.482Z,4.66
2018-02-11T11:53:57.617Z,4.63
2018-02-11T11:55:11.711Z,4.66
2018-02-11T11:56:26.545Z,4.61
2018-02-11T11:57:40.411Z,4.56
2018-02-11T11:58:55.906Z,4.67
2018-02-11T12:00:11.047Z,4.66
2018-02-11T12:01:26.346Z,4.66
2018-02-11T12:02:41.629Z,4.71
2018-02-11T12:03:56.027Z,4.74
2018-02-11T12:05:11.319Z,4.76
2018-02-11T12:06:26.049Z,4.89
2018-02-11T12:07:40.468Z,4.94
2018-02-11T12:08:55.494Z,4.95
2018-02-11T12:10:10.422Z,4.97
2018-02-11T12:11:24.716Z,5.04
2018-02-11T12:12:38.797Z,5.05
2018-02-11T12:13:54.165Z,4.98
2018-02-11T12:15:09.740Z,5.01
2018-02-11T12:16:24.244Z,5.04
2018-02-11T12:17:39.278Z,5.04
2018-02-11T12:19:07.302Z,5.08
2018-02-11T12:20:21.914Z,5.19
2018-02-11T12:21:36.903Z,5.23
2018-02-11T12:22:51.680Z,5.18
2018-02-11T12:24:06.569Z,5.23
2018-02-11T12:25:21.370Z,5.22
2018-02-11T12:26:36.364Z,5.22
2018-02-11T12:27:51.431Z,5.19
2018-02-11T12:29:06.200Z,5.26
2018-02-11T12:30:21.150Z,5.25
2018-02-11T12:31:36.666Z,5.25
2018-02-11T12:32:51.324Z,5.37
2018-02-11T12:34:06.375Z,5.44
2018-02-11T12:35:21.112Z,5.49
2018-02-11T12:36:35.912Z,5.59
2018-02-11T12:37:50.668Z,5.56
2018-02-11T12:39:05.734Z,5.43
2018-02-11T12:40:20.680Z,5.67
2018-02-11T12:41:35.378Z,5.77
2018-02-11T12:42:49.751Z,5.88
2018-02-11T12:44:04.829Z,5.8
2018-02-11T12:45:19.231Z,5.97
2018-02-11T12:46:35.054Z,6.01
2018-02-11T12:47:50.050Z,6.05
2018-02-11T12:49:05.200Z,6.09
2018-02-11T12:50:20.394Z,6.19
2018-02-11T12:51:34.723Z,6.2
2018-02-11T12:52:48.810Z,6.46
2018-02-11T12:54:03.729Z,6.39
2018-02-11T12:55:18.125Z,6.52
2018-02-11T12:56:33.689Z,6.47
2018-02-11T12:57:48.396Z,6.29
2018-02-11T12:59:03.463Z,6.32
2018-02-11T13:00:18.623Z,6.15
2018-02-11T13:01:33.796Z,6.2
2018-02-11T13:02:48.552Z,6.25
2018-02-11T13:04:03.749Z,6.26
2018-02-11T13:05:17.892Z,6.35
2018-02-11T13:06:33.352Z,6.34
2018-02-11T13:07:48.126Z,6.31
2018-02-11T13:09:03.129Z,6.34
2018-02-11T13:10:17.630Z,6.38
2018-02-11T13:11:32.906Z,6.39
2018-02-11T13:12:48.051Z,6.34
2018-02-11T13:14:03.168Z,6.36
2018-02-11T13:15:17.944Z,6.35
2018-02-11T13:16:32.968Z,6.41
2018-02-11T13:17:47.610Z,6.44
2018-02-11T13:19:02.299Z,6.41
2018-02-11T13:20:17.309Z,6.46
2018-02-11T13:21:31.992Z,6.52
2018-02-11T13:22:46.412Z,6.54
2018-02-11T13:24:00.823Z,6.56
2018-02-11T13:25:16.108Z,6.47
2018-02-11T13:26:30.803Z,6.47
2018-02-11T13:27:45.335Z,6.41
2018-02-11T13:29:00.355Z,6.5
2018-02-11T13:31:38.377Z,6.28
2018-02-11T13:32:53.355Z,6.43
2018-02-11T13:34:08.148Z,6.41
2018-02-11T13:35:22.523Z,6.6
2018-02-11T13:36:36.901Z,6.72
2018-02-11T13:37:51.902Z,6.72
2018-02-11T13:39:06.665Z,6.74
2018-02-11T13:40:21.763Z,6.59
2018-02-11T13:41:36.353Z,6.65
2018-02-11T13:42:51.328Z,6.57
2018-02-11T13:44:06.098Z,6.65
2018-02-11T13:45:21.453Z,6.56
2018-02-11T13:46:35.669Z,6.52
2018-02-11T13:47:49.558Z,6.52
2018-02-11T13:49:03.962Z,6.68
2018-02-11T13:50:19.257Z,6.59
2018-02-11T13:51:34.536Z,6.68
2018-02-11T13:52:49.951Z,6.67
2018-02-11T13:54:04.739Z,6.72
2018-02-11T13:55:19.806Z,6.72
2018-02-11T13:56:34.615Z,6.64
2018-02-11T13:57:48.852Z,6.62
2018-02-11T13:59:04.122Z,6.67
2018-02-11T14:00:18.936Z,6.68
2018-02-11T14:01:34.241Z,6.67
2018-02-11T14:02:49.833Z,6.57
2018-02-11T14:04:05.496Z,6.6
2018-02-11T14:05:19.904Z,6.54
2018-02-11T14:06:34.622Z,6.54
2018-02-11T14:07:50.336Z,6.5
2018-02-11T14:09:05.750Z,6.41
2018-02-11T14:10:20.564Z,6.36
2018-02-11T14:11:35.892Z,6.34
2018-02-11T14:12:50.467Z,6.17
2018-02-11T14:14:04.744Z,6.02
2018-02-11T14:15:18.950Z,6.06
2018-02-11T14:16:33.685Z,5.99
2018-02-11T14:17:48.280Z,5.98
2018-02-11T14:19:02.776Z,5.92
2018-02-11T14:20:18.071Z,5.81
2018-02-11T14:21:33.589Z,5.97
2018-02-11T14:22:49.454Z,6.01
2018-02-11T14:24:03.962Z,5.95
2018-02-11T14:25:19.097Z,5.88
2018-02-11T14:26:34.227Z,5.81
2018-02-11T14:27:48.420Z,5.84
2018-02-11T14:29:03.393Z,5.81
2018-02-11T14:30:18.890Z,5.9
2018-02-11T14:31:33.342Z,5.83
2018-02-11T14:32:48.073Z,5.92
2018-02-11T14:34:02.714Z,5.88
2018-02-11T14:35:17.992Z,5.87
2018-02-11T14:36:32.718Z,5.87
2018-02-11T14:37:46.789Z,5.83
2018-02-11T14:39:01.789Z,5.87
2018-02-11T14:40:16.794Z,5.84
2018-02-11T14:41:32.323Z,5.73
2018-02-11T14:42:47.546Z,5.77
2018-02-11T14:44:02.096Z,5.72
2018-02-11T14:45:17.418Z,5.62
2018-02-11T14:46:32.872Z,5.67
2018-02-11T14:47:47.853Z,5.65
2018-02-11T14:49:02.722Z,5.74
2018-02-11T14:50:17.733Z,5.74
2018-02-11T14:51:32.974Z,5.64
2018-02-11T14:52:47.989Z,5.67
2018-02-11T14:54:02.908Z,5.72
2018-02-11T14:55:17.868Z,5.64
2018-02-11T14:56:32.581Z,5.61
2018-02-11T14:57:47.567Z,5.64
2018-02-11T14:59:02.652Z,5.56
2018-02-11T15:00:17.410Z,5.51
2018-02-11T15:01:32.172Z,5.54
2018-02-11T15:02:47.168Z,5.46
2018-02-11T15:04:01.965Z,5.46
2018-02-11T15:05:16.650Z,5.4
2018-02-11T15:06:31.354Z,5.38
2018-02-11T15:07:47.029Z,5.38
2018-02-11T15:09:01.858Z,5.4
2018-02-11T15:10:16.872Z,5.4
2018-02-11T15:11:32.148Z,5.4
2018-02-11T15:12:47.422Z,5.43
2018-02-11T15:14:03.030Z,5.41
2018-02-11T15:15:17.662Z,5.41
2018-02-11T15:16:32.108Z,5.44
2018-02-11T15:17:46.785Z,5.4
2018-02-11T15:19:01.691Z,5.47
2018-02-11T15:20:17.018Z,5.41
2018-02-11T15:21:31.407Z,5.4
2018-02-11T15:22:46.432Z,5.49
2018-02-11T15:24:01.538Z,5.46
2018-02-11T15:25:17.441Z,5.49
2018-02-11T15:26:32.178Z,5.41
2018-02-11T15:27:47.176Z,5.43
2018-02-11T15:29:02.009Z,5.44
2018-02-11T15:30:16.799Z,5.46
2018-02-11T15:31:32.107Z,5.49
2018-02-11T15:32:47.386Z,5.56
2018-02-11T15:34:02.310Z,5.54
2018-02-11T15:35:16.755Z,5.59
2018-02-11T15:36:31.809Z,5.56
2018-02-11T15:37:47.628Z,5.58
2018-02-11T15:39:02.798Z,5.58
2018-02-11T15:40:17.403Z,5.51
2018-02-11T15:41:32.172Z,5.67
2018-02-11T15:42:46.575Z,5.59
2018-02-11T15:44:02.109Z,5.62
2018-02-11T15:45:17.177Z,5.56
2018-02-11T15:46:32.379Z,5.52
2018-02-11T15:47:47.135Z,5.55
2018-02-11T15:49:02.509Z,5.51
2018-02-11T15:50:17.430Z,5.55
2018-02-11T15:51:32.171Z,5.54
2018-02-11T15:52:47.571Z,5.55
2018-02-11T15:54:02.425Z,5.38
2018-02-11T15:55:17.181Z,5.49
2018-02-11T15:56:32.335Z,5.54
2018-02-11T15:58:21.797Z,5.44
2018-02-11T15:59:36.697Z,5.46
2018-02-11T16:00:51.139Z,5.33
2018-02-11T16:08:43.689Z,5.37
2018-02-11T16:09:58.617Z,5.29
2018-02-11T16:11:13.665Z,5.43
2018-02-11T16:12:28.520Z,5.41
2018-02-11T16:13:43.628Z,5.54
2018-02-11T16:14:58.972Z,5.49
2018-02-11T16:16:14.342Z,5.61
2018-02-11T16:17:29.068Z,5.7
2018-02-11T16:18:44.361Z,5.69
2018-02-11T16:19:59.029Z,5.73
2018-02-11T16:21:14.027Z,5.77
2018-02-11T16:22:28.744Z,5.73
2018-02-11T16:23:43.072Z,5.69
2018-02-11T16:24:57.827Z,5.81
2018-02-11T16:26:12.339Z,5.77
2018-02-11T16:27:27.682Z,5.8
2018-02-11T16:28:42.930Z,5.77
2018-02-11T16:29:57.947Z,5.76
2018-02-11T16:31:13.272Z,5.83
2018-02-11T16:32:27.445Z,5.77
2018-02-11T16:33:42.553Z,5.8
2018-02-11T16:34:57.593Z,5.73
2018-02-11T16:36:12.991Z,5.69
2018-02-11T16:37:27.891Z,5.65
2018-02-11T16:38:42.757Z,5.64
2018-02-11T16:39:58.086Z,5.69
2018-02-11T16:41:12.819Z,5.72
2018-02-11T16:42:27.535Z,5.65
2018-02-11T16:43:42.099Z,5.7
2018-02-11T16:44:57.120Z,5.73
2018-02-11T16:46:11.594Z,5.59
2018-02-11T16:47:27.215Z,5.65
2018-02-11T16:48:42.579Z,5.56
2018-02-11T16:49:57.549Z,5.56
2018-02-11T16:51:11.443Z,5.58
2018-02-11T16:52:27.000Z,5.56
2018-02-11T16:53:41.802Z,5.56